Time;durP1;ratioP1;P1;durP2;ratioP2;P2;SDS_P1;SDS_P2;PMS_P1;PMS_P2;Temp;Humidity;BMP_temperature;BMP_pressure;BME280_temperature;BME280_humidity;BME280_pressure;Samples;Min_cycle;Max_cycle;Signal;HPM_P1;HPM_P2
2022/01/08 00:00:05;;;;;;;21.85;19.55;;;0.70;99.90;;;;;;5029269;28;20049;-73
2022/01/08 00:02:31;;;;;;;22.45;20.15;;;0.70;99.90;;;;;;5024270;28;20032;-74
2022/01/08 00:04:58;;;;;;;24.30;21.77;;;0.70;99.90;;;;;;5030304;28;20100;-74
2022/01/08 00:07:24;;;;;;;23.95;21.50;;;0.70;99.90;;;;;;5023810;28;20072;-74
2022/01/08 00:09:49;;;;;;;24.25;21.60;;;0.80;99.90;;;;;;5027625;28;20022;-74
2022/01/08 00:12:15;;;;;;;24.58;22.00;;;0.70;99.90;;;;;;5028344;28;20503;-74
2022/01/08 00:14:40;;;;;;;23.45;21.13;;;0.70;99.90;;;;;;5029859;28;20037;-74
2022/01/08 00:17:06;;;;;;;23.30;20.90;;;0.70;99.90;;;;;;5024987;28;20025;-74
2022/01/08 00:19:31;;;;;;;23.65;21.15;;;0.70;99.90;;;;;;5025896;28;20045;-75
2022/01/08 00:21:57;;;;;;;24.88;22.23;;;0.70;99.90;;;;;;5035101;28;20075;-74
2022/01/08 00:24:22;;;;;;;27.48;23.90;;;0.70;99.90;;;;;;5025449;28;20040;-75
2022/01/08 00:26:48;;;;;;;26.08;22.67;;;0.70;99.90;;;;;;5029883;28;20058;-74
2022/01/08 00:29:14;;;;;;;31.17;26.00;;;0.70;99.90;;;;;;5023586;28;20475;-75
2022/01/08 00:31:40;;;;;;;31.25;25.58;;;0.70;99.90;;;;;;5036250;22;20132;-75
2022/01/08 00:34:06;;;;;;;27.02;22.67;;;0.70;99.90;;;;;;5018443;28;20057;-75
2022/01/08 00:36:32;;;;;;;25.25;21.30;;;0.70;99.90;;;;;;5022073;28;20061;-75
2022/01/08 00:38:58;;;;;;;24.67;22.00;;;0.70;99.90;;;;;;5023168;28;20387;-75
2022/01/08 00:41:25;;;;;;;28.08;23.48;;;0.70;99.90;;;;;;5023126;28;20040;-76
2022/01/08 00:43:50;;;;;;;25.17;22.42;;;0.70;99.90;;;;;;5005930;28;20014;-73
2022/01/08 00:46:16;;;;;;;24.10;21.52;;;0.70;99.90;;;;;;5001263;28;20036;-75
2022/01/08 00:48:43;;;;;;;25.08;22.40;;;0.80;99.90;;;;;;5008372;28;20403;-75
2022/01/08 00:51:08;;;;;;;25.58;21.40;;;0.70;99.90;;;;;;5012250;28;20025;-75
2022/01/08 00:53:34;;;;;;;24.02;21.60;;;0.70;99.90;;;;;;5014467;28;20547;-75
2022/01/08 00:55:59;;;;;;;23.88;20.85;;;0.70;99.90;;;;;;5012197;28;20030;-75
2022/01/08 00:58:25;;;;;;;21.77;19.42;;;0.70;99.90;;;;;;5009567;28;20540;-74
2022/01/08 01:00:50;;;;;;;22.17;19.88;;;0.70;99.90;;;;;;5007313;28;20022;-75
2022/01/08 01:03:16;;;;;;;23.63;19.65;;;0.70;99.90;;;;;;5012029;28;20037;-75
2022/01/08 01:05:41;;;;;;;23.45;20.95;;;0.70;99.90;;;;;;5008305;28;20476;-76
2022/01/08 01:08:07;;;;;;;22.70;19.95;;;0.70;99.90;;;;;;5011719;28;20014;-75
2022/01/08 01:10:32;;;;;;;22.63;20.20;;;0.70;99.90;;;;;;5006088;28;20384;-76
2022/01/08 01:12:58;;;;;;;22.73;19.58;;;0.70;99.90;;;;;;5005825;28;20387;-76
2022/01/08 01:15:24;;;;;;;23.35;20.77;;;0.70;99.90;;;;;;5010447;28;20057;-77
2022/01/08 01:17:49;;;;;;;23.15;20.58;;;0.80;99.90;;;;;;5011078;28;20022;-77
2022/01/08 01:20:16;;;;;;;23.20;20.83;;;0.80;99.90;;;;;;4999202;28;20037;-77
2022/01/08 01:22:58;;;;;;;21.73;19.25;;;0.80;99.90;;;;;;5013080;28;20120;-77
2022/01/08 01:25:31;;;;;;;25.17;20.73;;;0.80;99.90;;;;;;4986787;28;20036;-76
2022/01/08 01:30:41;;;;;;;21.65;19.17;;;0.80;99.90;;;;;;5014048;28;20395;-75
2022/01/08 01:47:04;;;;;;;23.52;20.98;;;0.80;99.90;;;;;;5013672;28;20029;-76
2022/01/08 01:49:32;;;;;;;23.65;21.08;;;0.70;99.90;;;;;;5012285;28;20044;-75
2022/01/08 01:51:59;;;;;;;26.17;22.85;;;0.70;99.90;;;;;;5010090;28;20088;-74
2022/01/08 01:54:26;;;;;;;28.48;25.35;;;0.70;99.90;;;;;;5001652;28;20026;-74
2022/01/08 01:56:52;;;;;;;28.23;24.67;;;0.70;99.90;;;;;;5007245;28;20224;-74
2022/01/08 01:59:17;;;;;;;31.38;26.17;;;0.60;99.90;;;;;;5012246;28;20081;-75
2022/01/08 02:01:43;;;;;;;30.33;26.10;;;0.60;99.90;;;;;;5011917;28;20022;-74
2022/01/08 02:04:08;;;;;;;31.00;26.70;;;0.60;99.90;;;;;;5012982;28;20026;-74
2022/01/08 02:06:34;;;;;;;31.30;25.05;;;0.50;99.90;;;;;;5013302;28;20026;-75
2022/01/08 02:08:59;;;;;;;28.33;24.65;;;0.50;99.90;;;;;;5013070;28;20026;-74
2022/01/08 02:11:25;;;;;;;27.08;23.75;;;0.50;99.90;;;;;;5012838;28;20483;-75
2022/01/08 02:13:51;;;;;;;28.20;25.08;;;0.50;99.90;;;;;;5012919;28;20472;-75
2022/01/08 02:16:17;;;;;;;27.25;24.00;;;0.60;99.90;;;;;;5011706;28;20065;-75
2022/01/08 02:18:47;;;;;;;25.52;22.33;;;0.50;99.90;;;;;;5008015;28;20034;-76
2022/01/08 02:21:16;;;;;;;25.30;22.60;;;0.60;99.90;;;;;;5004205;28;20045;-75
2022/01/08 02:23:42;;;;;;;23.10;20.42;;;0.60;99.90;;;;;;5011522;28;20026;-75
2022/01/08 02:26:10;;;;;;;22.38;19.83;;;0.60;99.90;;;;;;5011691;28;20026;-76
2022/01/08 02:28:37;;;;;;;22.75;20.30;;;0.60;99.90;;;;;;5011515;28;20033;-76
2022/01/08 02:31:03;;;;;;;24.58;21.17;;;0.60;99.90;;;;;;5012567;28;20040;-76
2022/01/08 02:33:29;;;;;;;21.33;19.13;;;0.60;99.90;;;;;;5012815;28;20581;-74
2022/01/08 02:35:56;;;;;;;22.23;18.88;;;0.60;99.90;;;;;;5012458;28;20060;-74
2022/01/08 02:38:23;;;;;;;18.38;16.58;;;0.60;99.90;;;;;;5012744;28;20509;-74
2022/01/08 02:40:54;;;;;;;19.45;17.25;;;0.60;99.90;;;;;;5012529;28;20037;-74
2022/01/08 02:43:20;;;;;;;20.52;17.90;;;0.70;99.90;;;;;;5007361;28;20057;-75
2022/01/08 02:45:45;;;;;;;20.38;17.98;;;0.60;99.90;;;;;;4994656;28;20054;-76
2022/01/08 02:48:11;;;;;;;19.17;17.27;;;0.60;99.90;;;;;;5012728;28;20480;-76
2022/01/08 02:50:36;;;;;;;19.42;17.40;;;0.60;99.90;;;;;;5011150;28;20041;-77
2022/01/08 02:53:02;;;;;;;19.58;17.58;;;0.60;99.90;;;;;;5012595;28;20022;-77
2022/01/08 02:55:27;;;;;;;19.67;17.67;;;0.60;99.90;;;;;;5003012;28;20066;-77
2022/01/08 02:57:53;;;;;;;20.38;18.13;;;0.60;99.90;;;;;;4999628;28;20037;-76
2022/01/08 03:00:19;;;;;;;22.67;19.45;;;0.60;99.90;;;;;;5011346;28;20032;-77
2022/01/08 03:02:48;;;;;;;20.58;18.48;;;0.60;99.90;;;;;;5011193;28;20073;-77
2022/01/08 03:05:14;;;;;;;20.90;18.70;;;0.60;99.90;;;;;;5012340;28;20080;-76
2022/01/08 03:07:42;;;;;;;21.52;19.33;;;0.60;99.90;;;;;;5010997;28;20022;-76
2022/01/08 03:10:10;;;;;;;20.85;18.65;;;0.60;99.90;;;;;;5011013;28;20049;-76
2022/01/08 03:12:43;;;;;;;20.52;18.45;;;0.60;99.90;;;;;;5012171;28;20033;-75
2022/01/08 03:15:10;;;;;;;20.63;18.52;;;0.60;99.90;;;;;;5010749;28;20084;-76
2022/01/08 03:17:35;;;;;;;21.45;19.25;;;0.70;99.90;;;;;;5007543;28;20037;-76
2022/01/08 03:20:03;;;;;;;21.45;19.15;;;0.60;99.90;;;;;;4999055;28;20445;-74
2022/01/08 03:22:29;;;;;;;22.73;20.38;;;0.60;99.90;;;;;;5010109;28;20053;-74
2022/01/08 03:24:55;;;;;;;22.80;20.42;;;0.70;99.90;;;;;;4997313;28;20569;-74
2022/01/08 03:27:20;;;;;;;23.15;20.73;;;0.60;99.90;;;;;;5012140;28;20030;-76
2022/01/08 03:29:46;;;;;;;23.33;20.92;;;0.50;99.90;;;;;;5010647;28;20038;-76
2022/01/08 03:32:12;;;;;;;23.88;21.48;;;0.60;99.90;;;;;;5010640;28;20037;-76
2022/01/08 03:34:37;;;;;;;26.50;23.40;;;0.60;99.90;;;;;;5011559;28;20034;-76
2022/01/08 03:37:03;;;;;;;26.23;23.33;;;0.50;99.90;;;;;;5011945;28;20037;-75
2022/01/08 03:39:28;;;;;;;28.88;25.48;;;0.50;99.90;;;;;;4998551;28;20081;-75
2022/01/08 03:41:54;;;;;;;28.17;25.13;;;0.50;99.90;;;;;;5011883;28;20045;-75
2022/01/08 03:44:20;;;;;;;30.88;24.13;;;0.50;99.90;;;;;;4996764;28;20027;-75
2022/01/08 03:46:45;;;;;;;29.17;26.08;;;0.40;99.90;;;;;;5001666;28;20022;-78
2022/01/08 03:49:22;;;;;;;31.10;26.75;;;0.40;99.90;;;;;;5011787;28;20022;-76
2022/01/08 03:51:49;;;;;;;30.83;27.13;;;0.50;99.90;;;;;;5011619;28;20024;-77
2022/01/08 03:54:14;;;;;;;31.17;26.65;;;0.40;99.90;;;;;;5007422;28;20022;-75
2022/01/08 03:56:40;;;;;;;30.15;26.73;;;0.40;99.90;;;;;;5002605;28;20057;-75
2022/01/08 03:59:05;;;;;;;30.75;25.77;;;0.40;99.90;;;;;;5010761;28;20057;-76
2022/01/08 04:01:31;;;;;;;34.53;28.33;;;0.40;99.90;;;;;;5011469;28;20057;-76
2022/01/08 04:03:57;;;;;;;35.05;28.38;;;0.40;99.90;;;;;;5007689;28;20538;-76
2022/01/08 04:06:22;;;;;;;34.20;28.42;;;0.50;99.90;;;;;;5002167;28;20034;-77
2022/01/08 04:08:55;;;;;;;33.97;28.48;;;0.40;99.90;;;;;;5011496;28;20033;-77
2022/01/08 04:11:21;;;;;;;31.40;27.48;;;0.40;99.90;;;;;;5011558;28;20014;-76
2022/01/08 04:13:47;;;;;;;32.15;28.13;;;0.40;99.90;;;;;;5011400;28;20424;-76
2022/01/08 04:16:17;;;;;;;32.67;27.10;;;0.40;99.90;;;;;;5011410;28;20034;-77
2022/01/08 04:18:43;;;;;;;32.88;27.48;;;0.40;99.90;;;;;;5001430;28;20022;-76
2022/01/08 04:23:53;;;;;;;33.78;27.88;;;0.40;99.90;;;;;;5011432;28;20438;-75
2022/01/08 04:26:21;;;;;;;33.42;29.35;;;0.40;99.90;;;;;;5009674;28;20507;-75
2022/01/08 04:28:48;;;;;;;33.42;26.58;;;0.40;99.90;;;;;;5011451;28;20072;-75
2022/01/08 04:31:14;;;;;;;33.15;27.65;;;0.40;99.90;;;;;;5009910;28;20038;-75
2022/01/08 04:33:39;;;;;;;35.53;28.08;;;0.40;99.90;;;;;;5012513;28;20032;-74
2022/01/08 04:36:05;;;;;;;34.58;28.60;;;0.40;99.90;;;;;;5014767;28;20026;-76
2022/01/08 04:38:32;;;;;;;34.50;27.88;;;0.40;99.90;;;;;;5014978;28;20053;-75
2022/01/08 04:40:57;;;;;;;32.60;27.25;;;0.50;99.90;;;;;;5013306;28;20036;-75
2022/01/08 04:43:23;;;;;;;32.78;27.63;;;0.40;99.90;;;;;;5009015;28;20030;-74
2022/01/08 04:45:50;;;;;;;33.10;27.33;;;0.40;99.90;;;;;;4995400;28;20037;-75
2022/01/08 04:48:16;;;;;;;30.13;25.30;;;0.40;99.90;;;;;;5009719;28;20025;-75
2022/01/08 04:50:42;;;;;;;31.45;25.92;;;0.40;99.90;;;;;;5014513;28;20030;-74
2022/01/08 04:53:07;;;;;;;32.08;26.48;;;0.40;99.90;;;;;;5013290;28;20034;-74
2022/01/08 04:55:33;;;;;;;35.30;27.73;;;0.40;99.90;;;;;;5014175;28;20415;-73
2022/01/08 04:57:59;;;;;;;29.05;24.80;;;0.40;99.90;;;;;;5014668;28;20061;-74
2022/01/08 05:00:24;;;;;;;32.55;26.63;;;0.40;99.90;;;;;;5001278;28;20036;-74
2022/01/08 05:02:50;;;;;;;30.17;25.90;;;0.40;99.90;;;;;;5014486;28;20430;-74
2022/01/08 05:05:16;;;;;;;29.38;25.05;;;0.40;99.90;;;;;;5012540;28;20037;-73
2022/01/08 05:07:41;;;;;;;28.75;25.00;;;0.40;99.90;;;;;;5003168;28;20036;-74
2022/01/08 05:10:08;;;;;;;33.05;26.88;;;0.30;99.90;;;;;;5011026;28;20026;-75
2022/01/08 05:12:33;;;;;;;30.75;26.95;;;0.40;99.90;;;;;;5002078;28;20030;-75
2022/01/08 05:15:01;;;;;;;28.10;24.92;;;0.40;99.90;;;;;;5011071;28;20087;-75
2022/01/08 05:17:35;;;;;;;31.67;26.23;;;0.40;99.90;;;;;;5003989;28;20041;-75
2022/01/08 05:20:04;;;;;;;29.58;25.55;;;0.40;99.90;;;;;;5012882;28;20030;-74
2022/01/08 05:22:41;;;;;;;29.73;24.52;;;0.40;99.90;;;;;;5012750;28;20026;-74
2022/01/08 05:25:07;;;;;;;33.50;26.65;;;0.40;99.90;;;;;;5012654;28;20026;-75
2022/01/08 05:27:33;;;;;;;30.48;25.33;;;0.40;99.90;;;;;;5012827;28;20396;-75
2022/01/08 05:29:58;;;;;;;33.38;26.98;;;0.40;99.90;;;;;;5012601;28;20022;-73
2022/01/08 05:32:24;;;;;;;40.72;29.45;;;0.40;99.90;;;;;;5013865;28;20072;-73
2022/01/08 05:34:51;;;;;;;33.05;26.95;;;0.40;99.90;;;;;;5013655;28;20484;-73
2022/01/08 05:37:18;;;;;;;34.95;27.08;;;0.40;99.90;;;;;;5013469;28;20117;-75
2022/01/08 05:39:45;;;;;;;31.60;25.27;;;0.40;99.90;;;;;;5012464;28;20022;-74
2022/01/08 05:42:11;;;;;;;32.80;24.98;;;0.40;99.90;;;;;;5013487;28;20030;-74
2022/01/08 05:44:37;;;;;;;30.23;24.88;;;0.40;99.90;;;;;;4997212;28;20419;-74
2022/01/08 05:47:03;;;;;;;29.45;23.83;;;0.40;99.90;;;;;;5004123;28;20033;-74
2022/01/08 05:49:28;;;;;;;26.67;22.08;;;0.40;99.90;;;;;;5008552;28;20026;-74
2022/01/08 05:51:54;;;;;;;24.48;21.00;;;0.40;99.90;;;;;;5004025;28;20117;-74
2022/01/08 05:54:19;;;;;;;25.25;21.25;;;0.40;99.90;;;;;;5013202;28;20018;-75
2022/01/08 05:56:45;;;;;;;21.98;19.48;;;0.40;99.90;;;;;;5002374;28;20030;-75
2022/01/08 05:59:11;;;;;;;26.38;20.63;;;0.40;99.90;;;;;;5001133;28;20075;-75
2022/01/08 06:01:36;;;;;;;25.55;20.42;;;0.40;99.90;;;;;;5002545;28;20247;-74
2022/01/08 06:04:03;;;;;;;21.63;18.60;;;0.50;99.90;;;;;;5002316;28;20053;-76
2022/01/08 06:06:29;;;;;;;24.73;19.95;;;0.50;99.90;;;;;;5001592;28;20387;-77
2022/01/08 06:08:55;;;;;;;20.02;17.77;;;0.50;99.90;;;;;;4998421;28;20230;-76
2022/01/08 06:11:21;;;;;;;22.45;18.25;;;0.50;99.90;;;;;;5002377;28;20031;-75
2022/01/08 06:13:46;;;;;;;21.35;17.70;;;0.50;99.90;;;;;;5006996;28;20058;-75
2022/01/08 06:16:12;;;;;;;19.67;16.70;;;0.50;99.90;;;;;;5002979;28;20049;-75
2022/01/08 06:18:38;;;;;;;24.40;18.30;;;0.50;99.90;;;;;;5000001;28;20472;-73
2022/01/08 06:21:04;;;;;;;22.33;18.33;;;0.50;99.90;;;;;;5013081;28;20025;-74
2022/01/08 06:23:30;;;;;;;17.35;15.02;;;0.50;99.90;;;;;;5012984;28;20030;-75
2022/01/08 06:25:56;;;;;;;17.65;15.75;;;0.50;99.90;;;;;;5002017;28;20491;-74
2022/01/08 06:28:21;;;;;;;17.48;15.57;;;0.50;99.90;;;;;;5005262;28;20062;-75
2022/01/08 06:30:47;;;;;;;18.77;15.63;;;0.50;99.90;;;;;;5003912;28;20056;-74
2022/01/08 06:33:14;;;;;;;16.33;14.57;;;0.50;99.90;;;;;;5012983;28;20567;-76
2022/01/08 06:35:40;;;;;;;17.42;15.45;;;0.50;99.90;;;;;;5002220;28;20091;-76
2022/01/08 06:38:05;;;;;;;14.80;12.68;;;0.50;99.90;;;;;;5005116;28;20062;-76
2022/01/08 06:40:31;;;;;;;19.65;16.92;;;0.50;99.90;;;;;;5003400;28;20076;-76
2022/01/08 06:42:56;;;;;;;20.63;17.90;;;0.60;99.90;;;;;;4998493;28;20026;-76
2022/01/08 06:45:22;;;;;;;19.38;16.55;;;0.50;99.90;;;;;;5001061;28;20030;-76
2022/01/08 06:47:47;;;;;;;17.15;15.35;;;0.60;99.90;;;;;;5009701;28;20388;-74
2022/01/08 06:50:13;;;;;;;17.15;15.45;;;0.50;99.90;;;;;;5000268;28;20106;-75
2022/01/08 06:52:38;;;;;;;18.92;16.92;;;0.50;99.90;;;;;;5006084;28;20431;-75
2022/01/08 06:55:05;;;;;;;20.27;18.10;;;0.60;99.90;;;;;;5003653;28;20041;-74
2022/01/08 06:57:30;;;;;;;55.80;43.22;;;0.50;99.90;;;;;;4998645;28;20072;-74
2022/01/08 06:59:56;;;;;;;22.70;20.27;;;0.50;99.90;;;;;;5012617;28;20045;-74
2022/01/08 07:02:21;;;;;;;21.00;18.67;;;0.60;99.90;;;;;;4999353;28;20147;-75
2022/01/08 07:04:47;;;;;;;35.53;28.63;;;0.60;99.90;;;;;;5001366;28;20473;-75
2022/01/08 07:07:12;;;;;;;25.38;21.35;;;0.60;99.90;;;;;;5005950;28;20030;-75
2022/01/08 07:09:38;;;;;;;21.40;18.85;;;0.50;99.90;;;;;;5003460;28;20026;-75
2022/01/08 07:12:04;;;;;;;27.23;23.50;;;0.60;99.90;;;;;;4999322;28;20097;-76
2022/01/08 07:14:29;;;;;;;26.67;23.33;;;0.60;99.90;;;;;;5012111;28;20022;-74
2022/01/08 07:16:55;;;;;;;22.25;19.55;;;0.60;99.90;;;;;;5008710;28;20125;-74
2022/01/08 07:19:21;;;;;;;22.27;19.83;;;0.60;99.90;;;;;;5001334;28;20117;-74
2022/01/08 07:21:46;;;;;;;29.05;25.05;;;0.60;99.90;;;;;;4998878;28;20365;-74
2022/01/08 07:24:12;;;;;;;26.17;23.02;;;0.60;99.90;;;;;;5012106;28;20053;-74
2022/01/08 07:26:38;;;;;;;30.92;27.58;;;0.60;99.90;;;;;;4997484;28;20025;-74
2022/01/08 07:29:03;;;;;;;26.70;22.67;;;0.50;99.90;;;;;;5010873;28;20492;-73
2022/01/08 07:31:29;;;;;;;30.13;24.25;;;0.40;99.90;;;;;;5011848;28;20080;-73
2022/01/08 07:33:54;;;;;;;26.42;22.27;;;0.50;99.90;;;;;;5003079;28;20544;-74
2022/01/08 07:36:20;;;;;;;42.60;33.22;;;0.50;99.90;;;;;;5005503;28;20030;-75
2022/01/08 07:38:47;;;;;;;38.63;31.50;;;0.60;99.90;;;;;;5001015;28;20527;-75
2022/01/08 07:41:13;;;;;;;50.55;37.10;;;0.50;99.90;;;;;;4998687;28;20075;-75
2022/01/08 07:43:39;;;;;;;43.45;32.90;;;0.50;99.90;;;;;;5002305;28;20074;-75
2022/01/08 07:46:04;;;;;;;50.38;41.03;;;0.50;99.90;;;;;;4994892;28;20499;-75
2022/01/08 07:48:30;;;;;;;42.30;29.40;;;0.50;99.90;;;;;;5010652;28;20032;-74
2022/01/08 07:50:55;;;;;;;44.72;29.23;;;0.50;99.90;;;;;;4992473;28;20523;-74
2022/01/08 07:53:21;;;;;;;46.75;32.45;;;0.40;99.90;;;;;;4996005;28;20023;-74
2022/01/08 07:55:46;;;;;;;46.97;29.13;;;0.50;99.90;;;;;;5001508;28;20026;-74
2022/01/08 07:58:12;;;;;;;37.75;26.58;;;0.50;99.90;;;;;;5008528;28;20042;-74
2022/01/08 08:00:38;;;;;;;46.83;31.98;;;0.50;99.90;;;;;;5005800;28;20040;-74
2022/01/08 08:03:03;;;;;;;48.40;31.13;;;0.50;99.90;;;;;;5005167;28;20061;-75
2022/01/08 08:05:31;;;;;;;51.15;30.17;;;0.40;99.90;;;;;;4999414;28;20029;-75
2022/01/08 08:07:56;;;;;;;69.40;35.00;;;0.50;99.90;;;;;;4999904;28;20018;-74
2022/01/08 08:10:25;;;;;;;39.30;27.02;;;0.60;99.90;;;;;;4999261;28;20034;-76
2022/01/08 08:12:53;;;;;;;62.05;33.35;;;0.70;99.90;;;;;;5002367;28;20026;-76
2022/01/08 08:15:20;;;;;;;64.15;32.03;;;0.70;99.90;;;;;;5003922;28;20392;-76
2022/01/08 08:17:45;;;;;;;78.20;36.45;;;0.80;99.90;;;;;;4998067;28;20491;-75
2022/01/08 08:20:11;;;;;;;57.63;31.17;;;0.70;99.90;;;;;;5006171;28;20057;-75
2022/01/08 08:22:37;;;;;;;85.65;36.88;;;0.70;99.90;;;;;;5003827;28;20045;-76
2022/01/08 08:25:03;;;;;;;76.47;37.20;;;0.70;99.90;;;;;;5012091;28;20026;-76
2022/01/08 08:27:29;;;;;;;81.88;34.67;;;0.60;99.90;;;;;;5003120;28;20026;-75
2022/01/08 08:29:55;;;;;;;120.82;38.90;;;0.50;99.90;;;;;;5002715;28;20464;-76
2022/01/08 08:32:21;;;;;;;155.90;51.50;;;0.50;99.90;;;;;;5005447;28;20503;-76
2022/01/08 08:34:46;;;;;;;109.72;43.42;;;0.50;99.90;;;;;;5004725;28;20101;-78
2022/01/08 08:37:12;;;;;;;44.90;29.73;;;0.50;99.90;;;;;;5006218;28;20034;-75
2022/01/08 08:39:38;;;;;;;45.75;28.95;;;0.60;99.90;;;;;;5006995;28;20033;-75
2022/01/08 08:42:04;;;;;;;23.38;19.25;;;0.50;99.90;;;;;;5001938;28;20145;-76
2022/01/08 08:44:31;;;;;;;25.48;20.73;;;0.50;99.90;;;;;;4996483;28;20037;-75
2022/01/08 08:46:56;;;;;;;22.63;18.35;;;0.60;99.90;;;;;;4994904;28;20022;-75
2022/01/08 08:49:22;;;;;;;19.52;16.60;;;0.60;99.90;;;;;;5002612;28;20105;-75
2022/01/08 08:51:49;;;;;;;19.98;17.42;;;0.60;99.90;;;;;;5006101;28;20396;-75
2022/01/08 08:54:15;;;;;;;20.00;17.55;;;0.50;99.90;;;;;;4999734;28;20080;-74
2022/01/08 08:56:42;;;;;;;19.75;16.27;;;0.50;99.90;;;;;;4998349;28;20743;-74
2022/01/08 08:59:08;;;;;;;21.65;17.55;;;0.50;99.90;;;;;;5000972;28;20025;-74
2022/01/08 09:01:34;;;;;;;18.48;16.05;;;0.50;99.90;;;;;;5006687;28;20025;-74
2022/01/08 09:03:59;;;;;;;18.73;16.50;;;0.50;99.90;;;;;;4999977;28;20049;-74
2022/01/08 09:06:26;;;;;;;20.10;15.68;;;0.50;99.90;;;;;;5003005;28;20385;-74
2022/01/08 09:08:52;;;;;;;19.33;16.33;;;0.50;99.90;;;;;;5004153;28;20030;-74
2022/01/08 09:11:18;;;;;;;17.27;15.20;;;0.50;99.90;;;;;;5000096;28;20472;-75
2022/01/08 09:13:43;;;;;;;19.23;16.52;;;0.50;99.90;;;;;;4997161;28;20030;-75
2022/01/08 09:16:09;;;;;;;19.30;17.20;;;0.50;99.90;;;;;;4999880;28;20033;-75
2022/01/08 09:18:35;;;;;;;22.60;18.83;;;0.50;99.90;;;;;;5001244;28;20022;-74
2022/01/08 09:21:01;;;;;;;21.20;18.00;;;0.50;99.90;;;;;;4992377;28;20392;-74
2022/01/08 09:23:26;;;;;;;20.65;18.23;;;0.50;99.90;;;;;;5002935;28;20134;-74
2022/01/08 09:25:52;;;;;;;24.35;18.55;;;0.50;99.90;;;;;;5004699;28;20026;-74
2022/01/08 09:28:18;;;;;;;18.35;16.45;;;0.50;99.90;;;;;;5004296;28;20022;-74
2022/01/08 09:30:43;;;;;;;18.83;16.33;;;0.50;99.90;;;;;;4998915;28;20393;-74
2022/01/08 09:33:09;;;;;;;18.05;15.90;;;0.50;99.90;;;;;;5000280;28;20018;-74
2022/01/08 09:35:34;;;;;;;17.85;15.95;;;0.60;99.90;;;;;;4994345;28;20026;-74
2022/01/08 09:38:00;;;;;;;17.65;15.82;;;0.60;99.90;;;;;;5007752;28;20030;-74
2022/01/08 09:40:25;;;;;;;18.77;16.77;;;0.70;99.90;;;;;;5004554;28;20025;-74
2022/01/08 09:42:51;;;;;;;19.95;17.80;;;0.70;99.90;;;;;;5006538;28;20415;-74
2022/01/08 09:45:17;;;;;;;17.40;15.57;;;0.70;99.90;;;;;;5000219;28;20029;-74
2022/01/08 09:47:43;;;;;;;16.10;14.45;;;0.70;99.90;;;;;;5004566;28;20164;-74
2022/01/08 09:50:10;;;;;;;17.40;14.90;;;0.80;99.90;;;;;;5005851;28;20089;-75
2022/01/08 09:52:36;;;;;;;16.30;14.55;;;0.80;99.90;;;;;;5009398;28;20026;-75
2022/01/08 09:55:05;;;;;;;15.20;13.63;;;0.80;99.90;;;;;;5002781;28;20026;-74
2022/01/08 09:57:30;;;;;;;12.82;11.52;;;0.80;99.90;;;;;;5002431;28;20021;-74
2022/01/08 09:59:57;;;;;;;17.27;13.75;;;0.90;99.90;;;;;;5002821;28;20027;-74
2022/01/08 10:02:23;;;;;;;15.68;13.00;;;0.90;99.90;;;;;;4999988;28;20032;-74
2022/01/08 10:04:50;;;;;;;12.70;11.40;;;1.00;99.90;;;;;;4996062;28;20610;-74
2022/01/08 10:07:18;;;;;;;14.95;12.52;;;0.90;99.90;;;;;;5001589;28;20022;-75
2022/01/08 10:09:58;;;;;;;14.80;12.45;;;0.90;99.90;;;;;;4998091;28;20038;-74
2022/01/08 10:12:48;;;;;;;15.95;13.60;;;0.90;99.90;;;;;;4987986;28;20056;-74
2022/01/08 10:18:01;;;;;;;17.58;14.85;;;1.00;99.90;;;;;;4988351;28;20077;-74
2022/01/08 10:20:28;;;;;;;15.55;13.90;;;1.10;99.90;;;;;;4995775;28;20364;-74
2022/01/08 10:23:11;;;;;;;13.82;11.77;;;1.10;99.90;;;;;;5007129;28;20022;-74
2022/01/08 10:25:39;;;;;;;14.18;11.50;;;1.10;99.90;;;;;;4989127;28;20077;-74
2022/01/08 10:28:05;;;;;;;11.57;10.48;;;1.10;99.90;;;;;;4998107;28;20022;-74
2022/01/08 10:30:30;;;;;;;9.82;8.88;;;1.00;99.90;;;;;;4998075;28;20082;-75
2022/01/08 10:33:00;;;;;;;11.00;10.00;;;1.00;99.90;;;;;;4999940;28;20029;-74
2022/01/08 10:35:49;;;;;;;9.98;8.98;;;0.90;99.90;;;;;;5003123;28;20026;-74
2022/01/08 10:38:14;;;;;;;11.02;9.02;;;0.90;99.90;;;;;;4993745;28;20029;-74
2022/01/08 10:40:40;;;;;;;10.88;7.95;;;0.80;99.90;;;;;;5004341;28;20476;-76
2022/01/08 10:43:42;;;;;;;11.60;8.45;;;0.70;99.90;;;;;;4994981;28;20375;-74
2022/01/08 10:46:16;;;;;;;12.82;8.75;;;0.80;99.90;;;;;;4929033;29;20470;-74
2022/01/08 10:48:50;;;;;;;11.93;7.93;;;0.80;99.90;;;;;;4995710;28;20041;-74
2022/01/08 10:51:22;;;;;;;9.68;7.05;;;0.90;99.90;;;;;;4987562;28;20035;-75
2022/01/08 10:54:00;;;;;;;9.48;5.50;;;0.80;99.90;;;;;;4992367;28;20022;-74
2022/01/08 10:56:28;;;;;;;6.97;5.00;;;0.80;99.90;;;;;;4999139;28;20034;-74
2022/01/08 10:58:59;;;;;;;8.85;5.18;;;0.80;99.90;;;;;;4996854;28;20057;-75
2022/01/08 11:01:35;;;;;;;13.70;5.90;;;1.00;99.90;;;;;;4995987;28;20022;-75
2022/01/08 11:04:01;;;;;;;9.90;6.13;;;0.80;99.90;;;;;;4992590;28;20395;-76
2022/01/08 11:06:26;;;;;;;8.48;6.75;;;0.80;99.90;;;;;;4996864;28;20030;-75
2022/01/08 11:09:02;;;;;;;8.75;7.20;;;0.80;99.90;;;;;;5000869;28;20052;-75
2022/01/08 11:11:32;;;;;;;9.00;7.25;;;0.80;99.90;;;;;;4997846;28;20023;-75
2022/01/08 11:14:06;;;;;;;9.25;7.80;;;0.90;99.90;;;;;;4995772;28;20023;-76
2022/01/08 11:16:33;;;;;;;10.93;7.25;;;1.00;99.90;;;;;;5004165;28;20502;-75
2022/01/08 11:19:03;;;;;;;9.57;7.18;;;0.90;99.90;;;;;;4997154;28;20026;-75
2022/01/08 11:21:31;;;;;;;11.18;7.82;;;0.90;99.90;;;;;;4994228;28;20100;-75
2022/01/08 11:24:01;;;;;;;10.55;7.75;;;1.00;99.90;;;;;;4998181;28;20362;-75
2022/01/08 11:26:27;;;;;;;10.88;8.45;;;1.00;99.90;;;;;;4994857;28;20447;-74
2022/01/08 11:28:56;;;;;;;11.40;8.15;;;0.90;99.90;;;;;;5000135;28;20026;-74
2022/01/08 11:31:22;;;;;;;13.43;8.38;;;0.90;99.90;;;;;;4996767;28;20041;-74
2022/01/08 11:33:54;;;;;;;11.00;8.10;;;0.60;99.90;;;;;;5001983;28;20050;-75
2022/01/08 11:36:22;;;;;;;12.20;8.55;;;0.80;99.90;;;;;;4997542;28;20096;-74
2022/01/08 11:38:48;;;;;;;10.65;8.70;;;0.80;99.90;;;;;;4993987;28;20030;-74
2022/01/08 11:41:15;;;;;;;8.68;7.97;;;0.80;99.90;;;;;;5008937;28;20652;-75
2022/01/08 11:43:43;;;;;;;10.93;7.70;;;0.90;99.90;;;;;;5004405;28;20037;-76
2022/01/08 11:46:09;;;;;;;10.73;7.93;;;0.90;99.90;;;;;;5006883;28;20022;-74
2022/01/08 11:48:43;;;;;;;9.27;7.07;;;1.00;99.90;;;;;;5001905;28;20480;-74
2022/01/08 11:51:21;;;;;;;9.95;7.20;;;1.00;99.90;;;;;;5006249;28;20022;-75
2022/01/08 11:53:52;;;;;;;11.00;6.82;;;1.10;99.90;;;;;;5004145;28;20559;-75
2022/01/08 11:56:38;;;;;;;8.20;7.13;;;1.00;99.90;;;;;;5011488;28;20387;-75
2022/01/08 11:59:04;;;;;;;;;;;1.10;99.90;;;;;;5001435;28;20105;-76
2022/01/08 12:01:29;;;;;;;8.10;7.10;;;1.10;99.90;;;;;;5001416;28;20004;-75
2022/01/08 12:03:55;;;;;;;9.75;7.38;;;1.20;99.90;;;;;;5005775;28;20049;-73
2022/01/08 12:06:28;;;;;;;9.07;7.60;;;1.20;99.90;;;;;;5002751;28;20030;-73
2022/01/08 12:11:45;;;;;;;10.27;6.38;;;1.20;99.90;;;;;;5004247;28;20118;-75
2022/01/08 12:14:16;;;;;;;8.20;7.00;;;1.10;99.90;;;;;;5002020;28;20022;-74
2022/01/08 12:16:43;;;;;;;11.88;6.78;;;1.20;99.90;;;;;;5010312;28;20411;-75
2022/01/08 12:19:26;;;;;;;7.28;6.50;;;1.30;99.90;;;;;;5002060;28;20045;-75
2022/01/08 12:21:52;;;;;;;8.60;7.57;;;1.30;99.90;;;;;;5006404;28;20101;-75
2022/01/08 12:24:26;;;;;;;7.50;6.22;;;1.20;99.90;;;;;;5008806;28;20120;-76
2022/01/08 12:27:00;;;;;;;10.40;7.18;;;1.20;99.90;;;;;;4999374;28;20030;-75
2022/01/08 12:29:39;;;;;;;8.48;7.25;;;1.20;99.90;;;;;;5004373;28;20537;-75
2022/01/08 12:32:28;;;;;;;10.77;7.60;;;1.20;99.90;;;;;;4978468;28;20039;-75
2022/01/08 12:35:01;;;;;;;11.02;8.40;;;1.20;99.90;;;;;;5010404;28;20027;-74
2022/01/08 12:37:43;;;;;;;11.45;8.30;;;1.20;99.90;;;;;;5002475;28;20034;-74
2022/01/08 12:40:11;;;;;;;11.93;7.57;;;1.10;99.90;;;;;;5002031;28;20050;-74
2022/01/08 12:42:39;;;;;;;10.80;8.20;;;1.10;99.90;;;;;;5007049;28;20027;-74
2022/01/08 12:45:19;;;;;;;10.85;8.15;;;0.90;99.90;;;;;;5007213;28;20026;-76
2022/01/08 12:47:46;;;;;;;10.00;7.97;;;1.00;99.90;;;;;;5012099;28;20022;-76
2022/01/08 12:50:34;;;;;;;10.73;8.70;;;1.20;99.90;;;;;;5010521;28;20068;-75
2022/01/08 12:53:06;;;;;;;12.38;8.70;;;1.20;99.90;;;;;;5000978;28;20015;-75
2022/01/08 12:55:53;;;;;;;10.57;9.48;;;1.20;99.90;;;;;;5004630;28;20110;-75
2022/01/08 12:58:23;;;;;;;10.32;8.65;;;1.20;99.90;;;;;;4994286;28;20050;-76
2022/01/08 13:00:58;;;;;;;10.10;8.43;;;1.30;99.90;;;;;;5007960;28;20023;-75
2022/01/08 13:03:31;;;;;;;10.95;8.35;;;1.20;99.90;;;;;;5006060;28;20022;-76
2022/01/08 13:06:03;;;;;;;12.63;9.07;;;1.20;99.90;;;;;;4997139;28;20030;-75